createdAt,value
2022-11-17T00:01:55.716Z,0.90
2022-11-17T00:04:25.231Z,0.80
2022-11-17T00:06:55.120Z,0.73
2022-11-17T00:09:23.396Z,0.90
2022-11-17T00:12:09.647Z,1.07
2022-11-17T00:14:40.609Z,0.87
2022-11-17T00:17:10.574Z,0.70
2022-11-17T00:19:56.686Z,1.00
2022-11-17T00:22:27.259Z,1.00
2022-11-17T00:24:55.515Z,0.90
2022-11-17T00:27:23.718Z,1.30
2022-11-17T00:29:52.029Z,1.30
2022-11-17T00:32:37.912Z,1.10
2022-11-17T00:35:07.068Z,0.90
2022-11-17T00:37:38.556Z,1.10
2022-11-17T00:40:08.068Z,1.40
2022-11-17T00:42:36.265Z,1.20
2022-11-17T00:45:05.156Z,1.00
2022-11-17T00:47:36.927Z,1.23
2022-11-17T00:50:06.232Z,1.27
2022-11-17T00:52:34.426Z,1.20
2022-11-17T00:55:04.129Z,1.53
2022-11-17T00:57:32.928Z,1.40
2022-11-17T01:00:03.796Z,1.30
2022-11-17T01:02:32.059Z,1.23
2022-11-17T01:05:00.249Z,1.37
2022-11-17T01:07:28.548Z,1.37
2022-11-17T01:09:56.829Z,1.37
2022-11-17T01:12:26.770Z,1.30
2022-11-17T01:14:54.895Z,1.47
2022-11-17T01:17:23.094Z,1.30
2022-11-17T01:19:51.352Z,1.77
2022-11-17T01:22:19.581Z,1.60
2022-11-17T01:24:47.829Z,1.30
2022-11-17T01:27:16.108Z,2.57
2022-11-17T01:29:45.676Z,1.67
2022-11-17T01:32:13.941Z,1.83
2022-11-17T01:34:42.119Z,2.40
2022-11-17T01:37:22.000Z,2.40
2022-11-17T01:39:50.708Z,1.60
2022-11-17T01:42:21.581Z,1.70
2022-11-17T01:44:59.926Z,1.63
2022-11-17T01:47:39.724Z,1.87
2022-11-17T01:50:14.345Z,1.60
2022-11-17T01:52:43.997Z,2.53
2022-11-17T01:55:12.906Z,1.63
2022-11-17T01:57:47.184Z,1.53
2022-11-17T02:00:18.281Z,1.93
2022-11-17T02:02:47.732Z,1.73
2022-11-17T02:05:27.764Z,1.40
2022-11-17T02:07:58.628Z,1.63
2022-11-17T02:10:28.352Z,1.77
2022-11-17T02:12:57.049Z,1.93
2022-11-17T02:15:27.818Z,2.20
2022-11-17T02:17:56.911Z,1.40
2022-11-17T02:20:40.463Z,1.77
2022-11-17T02:23:51.033Z,1.53
2022-11-17T02:26:56.714Z,1.73
2022-11-17T02:29:31.339Z,1.60
2022-11-17T02:32:07.612Z,1.80
2022-11-17T02:34:42.389Z,1.93
2022-11-17T02:37:18.432Z,1.80
2022-11-17T02:39:53.287Z,1.97
2022-11-17T02:42:42.859Z,2.20
2022-11-17T02:45:18.750Z,2.17
2022-11-17T02:47:49.162Z,1.77
2022-11-17T02:50:21.923Z,2.13
2022-11-17T02:52:53.559Z,2.17
2022-11-17T02:55:21.867Z,2.40
2022-11-17T02:57:50.075Z,1.63
2022-11-17T03:00:21.627Z,1.90
2022-11-17T03:03:22.734Z,1.70
2022-11-17T03:06:04.424Z,2.07
2022-11-17T03:08:44.369Z,1.70
2022-11-17T03:11:13.303Z,1.83
2022-11-17T03:13:50.445Z,1.60
2022-11-17T03:16:29.984Z,1.80
2022-11-17T03:19:14.501Z,1.40
2022-11-17T03:21:47.981Z,1.70
2022-11-17T03:24:22.202Z,1.53
2022-11-17T03:26:54.622Z,1.50
2022-11-17T03:29:26.992Z,1.73
2022-11-17T03:32:00.752Z,1.70
2022-11-17T03:34:32.386Z,1.80
2022-11-17T03:37:03.508Z,1.90
2022-11-17T03:39:34.728Z,1.40
2022-11-17T03:42:06.451Z,1.80
2022-11-17T03:44:39.234Z,1.20
2022-11-17T03:47:11.297Z,1.03
2022-11-17T03:49:43.008Z,1.67
2022-11-17T03:52:11.318Z,1.30
2022-11-17T03:54:40.746Z,1.67
2022-11-17T03:57:17.031Z,1.73
2022-11-17T03:59:54.717Z,2.00
2022-11-17T04:02:26.283Z,1.30
2022-11-17T04:05:09.408Z,1.43
2022-11-17T04:07:41.207Z,1.43
2022-11-17T04:10:12.459Z,1.47
2022-11-17T04:12:58.550Z,1.87
2022-11-17T04:15:52.466Z,1.57
2022-11-17T04:18:23.185Z,2.07
2022-11-17T04:20:52.451Z,1.43
2022-11-17T04:23:20.830Z,2.23
2022-11-17T04:26:08.747Z,1.63
2022-11-17T04:28:40.581Z,1.70
2022-11-17T04:31:11.936Z,1.50
2022-11-17T04:33:43.219Z,1.80
2022-11-17T04:36:13.096Z,1.53
2022-11-17T04:38:43.163Z,1.77
2022-11-17T04:41:31.385Z,1.60
2022-11-17T04:44:00.197Z,1.50
2022-11-17T04:46:30.683Z,1.20
2022-11-17T04:49:00.988Z,1.70
2022-11-17T04:51:30.157Z,1.60
2022-11-17T04:53:58.815Z,1.90
2022-11-17T04:56:28.834Z,1.27
2022-11-17T04:58:57.672Z,1.80
2022-11-17T05:01:27.626Z,1.53
2022-11-17T05:03:58.935Z,0.90
2022-11-17T05:06:29.850Z,0.93
2022-11-17T05:08:58.141Z,0.93
2022-11-17T05:11:45.502Z,0.57
2022-11-17T05:14:15.664Z,1.10
2022-11-17T05:17:08.427Z,1.30
2022-11-17T05:19:39.128Z,0.80
2022-11-17T05:22:23.991Z,0.80
2022-11-17T05:24:52.366Z,0.80
2022-11-17T05:27:20.953Z,1.00
2022-11-17T05:29:49.159Z,0.87
2022-11-17T05:32:17.579Z,0.77
2022-11-17T05:34:45.865Z,0.80
2022-11-17T05:37:15.459Z,1.60
2022-11-17T05:39:43.676Z,0.63
2022-11-17T05:42:12.128Z,0.80
2022-11-17T05:44:40.322Z,0.70
2022-11-17T05:47:08.615Z,0.80
2022-11-17T05:49:36.880Z,1.30
2022-11-17T05:52:05.558Z,0.70
2022-11-17T05:54:35.604Z,1.00
2022-11-17T05:57:08.852Z,1.10
2022-11-17T05:59:41.256Z,0.90
2022-11-17T06:02:13.809Z,0.90
2022-11-17T06:04:42.160Z,0.93
2022-11-17T06:07:11.256Z,1.00
2022-11-17T06:09:43.311Z,0.87
2022-11-17T06:12:15.306Z,1.10
2022-11-17T06:14:44.477Z,0.87
2022-11-17T06:17:23.098Z,1.30
2022-11-17T06:19:54.409Z,1.20
2022-11-17T06:22:28.116Z,1.00
2022-11-17T06:24:59.426Z,1.10
2022-11-17T06:27:29.252Z,1.10
2022-11-17T06:29:59.888Z,0.80
2022-11-17T06:32:29.511Z,1.00
2022-11-17T06:34:58.162Z,0.93
2022-11-17T06:37:26.448Z,1.13
2022-11-17T06:39:54.831Z,1.07
2022-11-17T06:42:44.901Z,1.13
2022-11-17T06:45:13.394Z,1.23
2022-11-17T06:47:42.214Z,1.30
2022-11-17T06:50:11.374Z,1.70
2022-11-17T06:52:40.223Z,1.43
2022-11-17T06:55:09.801Z,1.00
2022-11-17T06:57:39.483Z,1.30
2022-11-17T07:00:09.063Z,1.30
2022-11-17T07:02:40.987Z,1.27
2022-11-17T07:05:10.044Z,1.37
2022-11-17T07:07:40.122Z,1.40
2022-11-17T07:10:09.519Z,1.30
2022-11-17T07:12:41.419Z,1.03
2022-11-17T07:15:12.198Z,1.27
2022-11-17T07:17:40.588Z,1.20
2022-11-17T07:20:10.555Z,1.40
2022-11-17T07:22:42.732Z,1.17
2022-11-17T07:25:11.474Z,1.20
2022-11-17T07:27:41.282Z,1.30
2022-11-17T07:30:11.160Z,1.30
2022-11-17T07:32:39.403Z,2.00
2022-11-17T07:35:08.384Z,1.30
2022-11-17T07:37:36.801Z,1.80
2022-11-17T07:40:06.120Z,1.30
2022-11-17T07:42:34.350Z,1.20
2022-11-17T07:45:09.867Z,1.47
2022-11-17T07:47:40.680Z,1.40
2022-11-17T07:50:10.668Z,1.50
2022-11-17T07:52:41.709Z,1.87
2022-11-17T07:55:20.110Z,1.30
2022-11-17T07:57:48.591Z,1.27
2022-11-17T08:00:21.449Z,1.40
2022-11-17T08:02:49.722Z,1.70
2022-11-17T08:05:18.436Z,1.40
2022-11-17T08:07:57.030Z,1.50
2022-11-17T08:10:27.088Z,1.30
2022-11-17T08:12:55.668Z,1.10
2022-11-17T08:15:25.299Z,1.40
2022-11-17T08:17:55.164Z,1.43
2022-11-17T08:20:27.147Z,1.40
2022-11-17T08:22:58.245Z,1.70
2022-11-17T08:25:27.955Z,1.60
2022-11-17T08:27:56.763Z,1.47
2022-11-17T08:30:28.649Z,2.13
2022-11-17T08:32:57.023Z,2.00
2022-11-17T08:35:27.022Z,1.43
2022-11-17T08:37:56.981Z,1.70
2022-11-17T08:40:26.565Z,1.80
2022-11-17T08:43:00.657Z,1.50
2022-11-17T08:45:34.206Z,1.37
2022-11-17T08:48:02.584Z,1.43
2022-11-17T08:50:32.554Z,1.40
2022-11-17T08:53:03.811Z,1.40
2022-11-17T08:55:40.610Z,1.90
2022-11-17T08:58:16.851Z,1.73
2022-11-17T09:00:49.678Z,1.50
2022-11-17T09:03:18.099Z,1.40
2022-11-17T09:05:52.419Z,1.30
2022-11-17T09:08:44.348Z,1.33
2022-11-17T09:11:11.634Z,1.40
2022-11-17T09:13:40.351Z,1.10
2022-11-17T09:16:12.105Z,1.50
2022-11-17T09:18:41.542Z,1.33
2022-11-17T09:21:11.982Z,1.33
2022-11-17T09:23:40.811Z,1.33
2022-11-17T09:26:10.606Z,1.43
2022-11-17T09:28:39.210Z,1.50
2022-11-17T09:31:10.818Z,1.37
2022-11-17T09:33:39.551Z,1.50
2022-11-17T09:36:08.450Z,1.50
2022-11-17T09:38:37.342Z,1.23
2022-11-17T09:41:27.768Z,1.37
2022-11-17T09:44:07.057Z,1.63
2022-11-17T09:46:47.364Z,1.27
2022-11-17T09:49:21.814Z,1.30
2022-11-17T09:51:52.089Z,1.60
2022-11-17T09:54:27.488Z,1.10
2022-11-17T09:56:58.919Z,1.13
2022-11-17T09:59:29.419Z,0.90
2022-11-17T10:01:59.417Z,1.23
2022-11-17T10:04:30.509Z,1.20
2022-11-17T10:06:59.674Z,1.20
2022-11-17T10:09:36.731Z,1.30
2022-11-17T10:12:16.850Z,1.33
2022-11-17T10:14:45.456Z,1.43
2022-11-17T10:17:15.377Z,1.47
2022-11-17T10:19:45.279Z,1.00
2022-11-17T10:22:36.639Z,0.90
2022-11-17T10:25:05.958Z,1.30
2022-11-17T10:27:35.613Z,1.20
2022-11-17T10:30:07.328Z,1.10
2022-11-17T10:32:42.689Z,1.00
2022-11-17T10:35:19.041Z,1.30
2022-11-17T10:37:55.549Z,1.37
2022-11-17T10:40:26.358Z,1.20
2022-11-17T10:43:23.753Z,1.07
2022-11-17T10:45:55.640Z,0.87
2022-11-17T10:48:30.862Z,1.40
2022-11-17T10:51:00.571Z,1.00
2022-11-17T10:53:41.368Z,1.53
2022-11-17T10:56:16.865Z,1.00
2022-11-17T10:58:59.594Z,0.87
2022-11-17T11:01:32.918Z,0.80
2022-11-17T11:04:03.654Z,0.93
2022-11-17T11:06:33.290Z,1.10
2022-11-17T11:09:04.539Z,1.00
2022-11-17T11:11:43.142Z,1.20
2022-11-17T11:14:23.134Z,0.80
2022-11-17T11:16:52.066Z,1.00
2022-11-17T11:19:22.734Z,0.80
2022-11-17T11:22:21.549Z,0.90
2022-11-17T11:24:56.207Z,1.00
2022-11-17T11:27:42.893Z,1.10
2022-11-17T11:30:13.530Z,1.47
2022-11-17T11:32:52.504Z,1.10
2022-11-17T11:35:41.835Z,1.13
2022-11-17T11:38:20.719Z,0.80
2022-11-17T11:41:05.646Z,0.90
2022-11-17T11:43:40.828Z,0.80
2022-11-17T11:46:16.497Z,0.70
2022-11-17T11:48:45.248Z,1.37
2022-11-17T11:51:18.712Z,0.87
2022-11-17T11:53:53.167Z,1.17
2022-11-17T11:56:26.112Z,0.70
2022-11-17T11:59:00.270Z,0.70
2022-11-17T12:01:31.698Z,0.83
2022-11-17T12:04:25.209Z,0.60
2022-11-17T12:07:03.097Z,0.80
2022-11-17T12:09:49.425Z,0.73
2022-11-17T12:12:20.477Z,0.70
2022-11-17T12:15:08.788Z,0.50
2022-11-17T12:17:38.158Z,0.80
2022-11-17T12:20:50.970Z,0.80
2022-11-17T12:23:34.662Z,0.60
2022-11-17T12:26:07.689Z,0.67
2022-11-17T12:28:38.124Z,0.60
2022-11-17T12:31:10.390Z,0.70
2022-11-17T12:34:17.010Z,0.67
2022-11-17T12:37:17.681Z,0.83
2022-11-17T12:40:07.955Z,0.80
2022-11-17T12:42:37.305Z,0.63
2022-11-17T12:45:11.050Z,0.60
2022-11-17T12:47:41.110Z,0.60
2022-11-17T12:50:51.254Z,0.97
2022-11-17T12:53:31.354Z,0.70
2022-11-17T12:56:24.669Z,0.50
2022-11-17T12:59:02.349Z,1.20
2022-11-17T13:01:51.669Z,0.80
2022-11-17T13:04:24.796Z,0.60
2022-11-17T13:07:01.146Z,0.57
2022-11-17T13:09:33.435Z,0.60
2022-11-17T13:12:06.449Z,0.70
2022-11-17T13:14:36.232Z,1.00
2022-11-17T13:17:05.561Z,0.70
2022-11-17T13:19:36.676Z,0.70
2022-11-17T13:22:07.361Z,0.90
2022-11-17T13:24:39.975Z,0.90
2022-11-17T13:27:21.717Z,0.90
2022-11-17T13:29:53.117Z,1.00
2022-11-17T13:32:23.909Z,0.90
2022-11-17T13:34:56.560Z,0.77
2022-11-17T13:37:26.270Z,0.70
2022-11-17T13:39:59.817Z,0.80
2022-11-17T13:42:32.481Z,0.90
2022-11-17T13:45:03.570Z,0.70
2022-11-17T13:47:45.525Z,0.87
2022-11-17T13:50:40.622Z,1.20
2022-11-17T13:53:24.738Z,1.30
2022-11-17T13:55:54.086Z,1.03
2022-11-17T13:58:32.105Z,0.70
2022-11-17T14:01:00.771Z,1.37
2022-11-17T14:03:35.292Z,1.00
2022-11-17T14:06:06.675Z,1.57
2022-11-17T14:08:36.228Z,0.90
2022-11-17T14:11:22.363Z,1.40
2022-11-17T14:13:54.000Z,1.20
2022-11-17T14:16:28.194Z,0.90
2022-11-17T14:19:02.792Z,1.00
2022-11-17T14:21:32.273Z,0.93
2022-11-17T14:24:04.508Z,0.70
2022-11-17T14:26:33.115Z,1.00
2022-11-17T14:29:03.302Z,0.90
2022-11-17T14:31:33.400Z,1.30
2022-11-17T14:34:04.109Z,0.83
2022-11-17T14:36:33.970Z,0.83
2022-11-17T14:39:03.163Z,1.00
2022-11-17T14:41:31.756Z,1.20
2022-11-17T14:43:59.986Z,1.27
2022-11-17T14:46:29.696Z,0.90
2022-11-17T14:48:58.163Z,0.60
2022-11-17T14:51:26.620Z,1.10
2022-11-17T14:53:55.392Z,0.93
2022-11-17T14:56:24.767Z,0.87
2022-11-17T14:58:56.144Z,1.00
2022-11-17T15:01:28.358Z,1.00
2022-11-17T15:03:59.950Z,1.40
2022-11-17T15:06:29.762Z,1.17
2022-11-17T15:08:59.929Z,1.10
2022-11-17T15:11:30.080Z,1.10
2022-11-17T15:14:02.778Z,1.93
2022-11-17T15:16:31.987Z,1.53
2022-11-17T15:19:03.734Z,0.90
2022-11-17T15:21:32.161Z,0.80
2022-11-17T15:24:02.456Z,1.10
2022-11-17T15:26:31.449Z,1.17
2022-11-17T15:28:59.783Z,1.23
2022-11-17T15:31:28.426Z,0.90
2022-11-17T15:33:56.791Z,1.00
2022-11-17T15:36:27.020Z,0.93
2022-11-17T15:38:55.258Z,1.20
2022-11-17T15:41:23.637Z,0.97
2022-11-17T15:43:53.135Z,0.90
2022-11-17T15:46:21.963Z,0.97
2022-11-17T15:48:52.541Z,0.93
2022-11-17T15:51:22.092Z,0.90
2022-11-17T15:53:53.761Z,0.80
2022-11-17T15:56:23.563Z,1.10
2022-11-17T15:58:56.507Z,1.20
2022-11-17T16:01:29.581Z,0.90
2022-11-17T16:04:02.720Z,1.10
2022-11-17T16:06:33.489Z,1.13
2022-11-17T16:09:03.725Z,1.30
2022-11-17T16:11:32.319Z,1.17
2022-11-17T16:14:01.161Z,1.00
2022-11-17T16:16:32.107Z,1.10
2022-11-17T16:19:00.585Z,2.00
2022-11-17T16:21:29.280Z,1.90
2022-11-17T16:24:00.660Z,1.70
2022-11-17T16:26:31.468Z,1.50
2022-11-17T16:29:00.617Z,1.50
2022-11-17T16:31:30.649Z,1.60
2022-11-17T16:34:00.648Z,1.37
2022-11-17T16:36:35.977Z,1.30
2022-11-17T16:39:06.857Z,1.10
2022-11-17T16:41:38.843Z,1.43
2022-11-17T16:44:09.553Z,1.30
2022-11-17T16:46:38.198Z,1.30
2022-11-17T16:49:08.612Z,1.93
2022-11-17T16:51:36.840Z,1.03
2022-11-17T16:54:07.717Z,1.63
2022-11-17T16:56:37.418Z,1.20
2022-11-17T16:59:07.445Z,1.40
2022-11-17T17:01:35.765Z,1.60
2022-11-17T17:04:06.799Z,1.30
2022-11-17T17:06:37.303Z,1.87
2022-11-17T17:09:08.772Z,1.67
2022-11-17T17:11:38.987Z,1.37
2022-11-17T17:14:09.874Z,1.47
2022-11-17T17:16:39.346Z,1.40
2022-11-17T17:19:11.401Z,1.47
2022-11-17T17:21:41.451Z,1.73
2022-11-17T17:24:10.620Z,2.23
2022-11-17T17:26:40.740Z,1.50
2022-11-17T17:29:09.528Z,1.63
2022-11-17T17:31:39.808Z,1.87
2022-11-17T17:34:09.929Z,1.33
2022-11-17T17:36:38.663Z,1.40
2022-11-17T17:39:08.208Z,1.50
2022-11-17T17:41:41.315Z,1.80
2022-11-17T17:44:10.436Z,1.47
2022-11-17T17:46:39.741Z,2.13
2022-11-17T17:49:08.369Z,2.37
2022-11-17T17:51:40.122Z,1.67
2022-11-17T17:54:10.372Z,1.40
2022-11-17T17:56:38.690Z,1.50
2022-11-17T17:59:08.707Z,1.70
2022-11-17T18:01:45.170Z,1.20
2022-11-17T18:04:16.246Z,1.50
2022-11-17T18:06:47.507Z,1.07
2022-11-17T18:09:19.428Z,1.10
2022-11-17T18:11:50.099Z,1.30
2022-11-17T18:14:24.258Z,1.00
2022-11-17T18:16:53.504Z,1.20
2022-11-17T18:19:22.077Z,2.53
2022-11-17T18:21:50.292Z,1.20
2022-11-17T18:24:18.560Z,1.00
2022-11-17T18:26:46.873Z,1.17
2022-11-17T18:29:18.463Z,1.20
2022-11-17T18:31:49.511Z,1.07
2022-11-17T18:34:21.563Z,1.30
2022-11-17T18:36:50.316Z,1.10
2022-11-17T18:39:18.779Z,1.47
2022-11-17T18:41:47.244Z,1.30
2022-11-17T18:44:16.833Z,1.43
2022-11-17T18:46:45.261Z,1.07
2022-11-17T18:49:15.204Z,1.30
2022-11-17T18:51:43.783Z,1.40
2022-11-17T18:54:13.019Z,1.17
2022-11-17T18:56:41.435Z,1.33
2022-11-17T18:59:12.298Z,1.37
2022-11-17T19:01:42.282Z,1.40
2022-11-17T19:04:12.670Z,1.27
2022-11-17T19:06:42.406Z,1.10
2022-11-17T19:09:11.461Z,1.30
2022-11-17T19:11:39.741Z,1.30
2022-11-17T19:14:08.472Z,1.33
2022-11-17T19:16:44.374Z,1.60
2022-11-17T19:19:15.134Z,1.50
2022-11-17T19:21:45.433Z,1.40
2022-11-17T19:24:15.433Z,1.40
2022-11-17T19:26:44.008Z,1.47
2022-11-17T19:29:18.111Z,1.60
2022-11-17T19:31:46.981Z,1.40
2022-11-17T19:34:15.923Z,1.57
2022-11-17T19:36:45.730Z,1.73
2022-11-17T19:39:15.268Z,1.50
2022-11-17T19:41:45.231Z,1.53
2022-11-17T19:44:13.704Z,1.80
2022-11-17T19:46:43.369Z,1.40
2022-11-17T19:49:14.161Z,1.70
2022-11-17T19:51:42.884Z,1.57
2022-11-17T19:54:14.537Z,1.50
2022-11-17T19:56:42.794Z,1.40
2022-11-17T19:59:15.695Z,1.50
2022-11-17T20:01:44.987Z,1.10
2022-11-17T20:04:13.322Z,1.37
2022-11-17T20:06:41.807Z,1.27
2022-11-17T20:09:12.620Z,1.30
2022-11-17T20:11:41.736Z,0.97
2022-11-17T20:14:10.799Z,1.13
2022-11-17T20:16:39.495Z,1.10
2022-11-17T20:19:08.241Z,1.30
2022-11-17T20:21:36.523Z,1.20
2022-11-17T20:24:05.401Z,1.20
2022-11-17T20:26:36.236Z,1.10
2022-11-17T20:29:05.100Z,1.50
2022-11-17T20:31:35.473Z,1.40
2022-11-17T20:34:06.557Z,1.43
2022-11-17T20:36:35.426Z,1.13
2022-11-17T20:39:06.785Z,1.10
2022-11-17T20:41:36.428Z,1.37
2022-11-17T20:44:23.851Z,1.30
2022-11-17T20:46:53.174Z,1.30
2022-11-17T20:49:21.528Z,1.23
2022-11-17T20:51:49.821Z,1.47
2022-11-17T20:54:18.064Z,1.23
2022-11-17T20:56:47.926Z,1.27
2022-11-17T20:59:19.964Z,1.33
2022-11-17T21:01:50.629Z,1.10
2022-11-17T21:04:18.850Z,1.47
2022-11-17T21:06:47.112Z,1.40
2022-11-17T21:09:15.755Z,1.37
2022-11-17T21:11:59.536Z,1.90
2022-11-17T21:14:30.610Z,1.40
2022-11-17T21:17:00.605Z,1.50
2022-11-17T21:19:32.335Z,1.23
2022-11-17T21:22:02.542Z,1.30
2022-11-17T21:24:31.872Z,1.20
2022-11-17T21:27:00.267Z,1.33
2022-11-17T21:29:29.898Z,1.50
2022-11-17T21:31:58.251Z,1.27
2022-11-17T21:34:26.581Z,1.80
2022-11-17T21:36:54.961Z,1.73
2022-11-17T21:39:23.266Z,1.30
2022-11-17T21:41:51.532Z,1.77
2022-11-17T21:44:19.900Z,1.70
2022-11-17T21:46:49.655Z,1.40
2022-11-17T21:49:18.425Z,1.13
2022-11-17T21:51:46.970Z,1.30
2022-11-17T21:54:15.236Z,1.27
2022-11-17T21:56:43.543Z,1.77
2022-11-17T21:59:14.022Z,1.27
2022-11-17T22:01:42.416Z,1.73
2022-11-17T22:04:15.658Z,1.50
2022-11-17T22:06:44.206Z,1.67
2022-11-17T22:09:12.511Z,1.70
2022-11-17T22:11:40.890Z,1.50
2022-11-17T22:14:11.783Z,1.47
2022-11-17T22:16:42.115Z,1.40
2022-11-17T22:19:12.643Z,1.20
2022-11-17T22:21:41.750Z,1.50
2022-11-17T22:24:11.468Z,1.40
2022-11-17T22:26:41.241Z,1.40
2022-11-17T22:29:14.245Z,1.83
2022-11-17T22:31:42.638Z,1.77
2022-11-17T22:34:12.794Z,1.63
2022-11-17T22:36:41.675Z,1.77
2022-11-17T22:39:10.489Z,1.60
2022-11-17T22:41:38.845Z,1.60
2022-11-17T22:44:07.502Z,1.80
2022-11-17T22:46:36.240Z,1.53
2022-11-17T22:49:04.451Z,1.53
2022-11-17T22:51:51.439Z,2.00
2022-11-17T22:54:19.713Z,2.03
2022-11-17T22:56:48.146Z,1.57
2022-11-17T22:59:16.738Z,2.03
2022-11-17T23:01:45.231Z,1.90
2022-11-17T23:04:14.155Z,1.70
2022-11-17T23:06:43.876Z,1.50
2022-11-17T23:09:12.700Z,1.90
2022-11-17T23:11:40.988Z,1.90
2022-11-17T23:14:12.212Z,2.03
2022-11-17T23:16:40.689Z,1.70
2022-11-17T23:19:13.511Z,2.10
2022-11-17T23:21:43.389Z,1.73
2022-11-17T23:24:13.077Z,1.70
2022-11-17T23:26:41.980Z,1.90
2022-11-17T23:29:10.616Z,1.70
2022-11-17T23:31:38.956Z,2.20
2022-11-17T23:34:09.636Z,2.13
2022-11-17T23:36:38.395Z,2.10
2022-11-17T23:39:08.441Z,2.53
2022-11-17T23:41:36.799Z,2.07
2022-11-17T23:44:05.492Z,2.20
2022-11-17T23:46:33.781Z,2.70
2022-11-17T23:49:02.306Z,2.20
2022-11-17T23:51:30.567Z,1.93
2022-11-17T23:54:00.262Z,2.27
2022-11-17T23:56:33.642Z,2.00
2022-11-17T23:59:02.321Z,2.20
